sensor_id;sensor_type;location;lat;lon;timestamp;pressure;altitude;pressure_sealevel;temperature;humidity
15308;BME280;7755;52.208;6.964;2022-07-06T00:01:17;102062.84;;;14.42;88.27
15308;BME280;7755;52.208;6.964;2022-07-06T00:05:18;102057.84;;;14.39;88.76
15308;BME280;7755;52.208;6.964;2022-07-06T00:09:21;102055.94;;;14.40;88.59
15308;BME280;7755;52.208;6.964;2022-07-06T00:13:23;102053.78;;;14.42;88.93
15308;BME280;7755;52.208;6.964;2022-07-06T00:17:25;102055.25;;;14.44;88.67
15308;BME280;7755;52.208;6.964;2022-07-06T00:21:27;102052.84;;;14.36;89.17
15308;BME280;7755;52.208;6.964;2022-07-06T00:25:30;102058.41;;;14.30;89.63
15308;BME280;7755;52.208;6.964;2022-07-06T00:29:32;102050.31;;;14.23;90.23
15308;BME280;7755;52.208;6.964;2022-07-06T00:33:33;102068.09;;;14.14;91.07
15308;BME280;7755;52.208;6.964;2022-07-06T00:37:35;102059.28;;;14.12;90.90
15308;BME280;7755;52.208;6.964;2022-07-06T00:41:38;102073.28;;;14.04;91.48
15308;BME280;7755;52.208;6.964;2022-07-06T00:45:41;102066.44;;;13.94;91.76
15308;BME280;7755;52.208;6.964;2022-07-06T00:49:44;102063.78;;;13.88;92.34
15308;BME280;7755;52.208;6.964;2022-07-06T00:54:04;102069.97;;;13.83;92.60
15308;BME280;7755;52.208;6.964;2022-07-06T00:58:08;102065.41;;;13.77;92.78
15308;BME280;7755;52.208;6.964;2022-07-06T01:02:10;102062.06;;;13.75;93.33
15308;BME280;7755;52.208;6.964;2022-07-06T01:06:12;102069.41;;;13.75;93.33
15308;BME280;7755;52.208;6.964;2022-07-06T01:10:16;102058.88;;;13.78;92.87
15308;BME280;7755;52.208;6.964;2022-07-06T01:14:20;102056.53;;;13.82;92.80
15308;BME280;7755;52.208;6.964;2022-07-06T01:18:22;102057.34;;;13.82;92.78
15308;BME280;7755;52.208;6.964;2022-07-06T01:22:25;102057.34;;;13.82;92.39
15308;BME280;7755;52.208;6.964;2022-07-06T01:26:27;102063.50;;;13.78;92.33
15308;BME280;7755;52.208;6.964;2022-07-06T01:30:29;102067.75;;;13.74;93.13
15308;BME280;7755;52.208;6.964;2022-07-06T01:34:31;102068.56;;;13.74;93.32
15308;BME280;7755;52.208;6.964;2022-07-06T01:38:43;102062.06;;;13.75;93.22
15308;BME280;7755;52.208;6.964;2022-07-06T01:42:45;102059.94;;;13.77;93.63
15308;BME280;7755;52.208;6.964;2022-07-06T01:46:47;102057.81;;;13.79;93.80
15308;BME280;7755;52.208;6.964;2022-07-06T01:50:49;102055.31;;;13.78;93.68
15308;BME280;7755;52.208;6.964;2022-07-06T01:54:53;102053.88;;;13.75;94.76
15308;BME280;7755;52.208;6.964;2022-07-06T01:58:55;102049.91;;;13.71;94.63
15308;BME280;7755;52.208;6.964;2022-07-06T02:02:57;102050.16;;;13.70;94.85
15308;BME280;7755;52.208;6.964;2022-07-06T02:06:59;102045.97;;;13.67;94.53
15308;BME280;7755;52.208;6.964;2022-07-06T02:11:04;102048.09;;;13.65;95.05
15308;BME280;7755;52.208;6.964;2022-07-06T02:15:08;102054.47;;;13.59;95.83
15308;BME280;7755;52.208;6.964;2022-07-06T02:19:10;102053.41;;;13.60;95.95
15308;BME280;7755;52.208;6.964;2022-07-06T02:23:12;102047.34;;;13.58;96.49
15308;BME280;7755;52.208;6.964;2022-07-06T02:27:16;102047.94;;;13.60;96.97
15308;BME280;7755;52.208;6.964;2022-07-06T02:31:18;102045.19;;;13.60;96.96
15308;BME280;7755;52.208;6.964;2022-07-06T02:35:22;102048.31;;;13.63;97.33
15308;BME280;7755;52.208;6.964;2022-07-06T02:39:24;102049.91;;;13.71;97.49
15308;BME280;7755;52.208;6.964;2022-07-06T02:43:27;102053.78;;;13.82;96.88
15308;BME280;7755;52.208;6.964;2022-07-06T02:47:30;102050.59;;;13.85;96.95
15308;BME280;7755;52.208;6.964;2022-07-06T02:51:31;102053.47;;;13.90;97.03
15308;BME280;7755;52.208;6.964;2022-07-06T02:55:34;102038.88;;;13.96;97.26
15308;BME280;7755;52.208;6.964;2022-07-06T02:59:39;102039.25;;;14.00;97.34
15308;BME280;7755;52.208;6.964;2022-07-06T03:03:41;102048.03;;;14.02;97.33
15308;BME280;7755;52.208;6.964;2022-07-06T03:07:43;102060.69;;;14.03;97.48
15308;BME280;7755;52.208;6.964;2022-07-06T03:11:45;102064.84;;;14.05;97.52
15308;BME280;7755;52.208;6.964;2022-07-06T03:15:49;102066.06;;;14.09;97.82
15308;BME280;7755;52.208;6.964;2022-07-06T03:19:51;102063.31;;;14.09;98.28
15308;BME280;7755;52.208;6.964;2022-07-06T03:23:53;102060.13;;;14.12;98.33
15308;BME280;7755;52.208;6.964;2022-07-06T03:27:55;102070.38;;;14.17;98.33
15308;BME280;7755;52.208;6.964;2022-07-06T03:31:58;102067.63;;;14.17;98.72
15308;BME280;7755;52.208;6.964;2022-07-06T03:36:00;102069.16;;;14.13;98.87
15308;BME280;7755;52.208;6.964;2022-07-06T03:40:04;102066.81;;;14.16;98.84
15308;BME280;7755;52.208;6.964;2022-07-06T03:44:06;102061.09;;;14.18;99.19
15308;BME280;7755;52.208;6.964;2022-07-06T03:48:10;102068.63;;;14.23;98.91
15308;BME280;7755;52.208;6.964;2022-07-06T03:52:15;102067.47;;;14.30;98.72
15308;BME280;7755;52.208;6.964;2022-07-06T03:56:23;102061.28;;;14.35;98.63
15308;BME280;7755;52.208;6.964;2022-07-06T04:00:38;102063.31;;;14.39;98.64
15308;BME280;7755;52.208;6.964;2022-07-06T04:04:47;102061.56;;;14.45;98.23
15308;BME280;7755;52.208;6.964;2022-07-06T04:08:49;102068.50;;;14.47;98.20
15308;BME280;7755;52.208;6.964;2022-07-06T04:12:51;102064.47;;;14.50;98.37
15308;BME280;7755;52.208;6.964;2022-07-06T04:16:53;102063.84;;;14.48;98.54
15308;BME280;7755;52.208;6.964;2022-07-06T04:20:56;102055.44;;;14.50;98.42
15308;BME280;7755;52.208;6.964;2022-07-06T04:25:00;102065.78;;;14.59;97.94
15308;BME280;7755;52.208;6.964;2022-07-06T04:29:02;102064.28;;;14.63;97.98
15308;BME280;7755;52.208;6.964;2022-07-06T04:33:04;102069.50;;;14.65;98.02
15308;BME280;7755;52.208;6.964;2022-07-06T04:37:09;102058.78;;;14.63;97.97
15308;BME280;7755;52.208;6.964;2022-07-06T04:41:11;102062.56;;;14.62;98.11
15308;BME280;7755;52.208;6.964;2022-07-06T04:45:13;102060.56;;;14.69;98.15
15308;BME280;7755;52.208;6.964;2022-07-06T04:49:16;102059.53;;;14.82;97.94
15308;BME280;7755;52.208;6.964;2022-07-06T04:53:19;102053.84;;;14.84;97.62
15308;BME280;7755;52.208;6.964;2022-07-06T04:57:21;102062.63;;;14.86;97.74
15308;BME280;7755;52.208;6.964;2022-07-06T05:01:29;102069.09;;;14.91;97.56
15308;BME280;7755;52.208;6.964;2022-07-06T05:05:30;102067.53;;;14.95;97.36
15308;BME280;7755;52.208;6.964;2022-07-06T05:09:35;102068.88;;;15.05;96.91
15308;BME280;7755;52.208;6.964;2022-07-06T05:13:37;102065.38;;;15.09;96.66
15308;BME280;7755;52.208;6.964;2022-07-06T05:17:39;102063.97;;;15.18;96.50
15308;BME280;7755;52.208;6.964;2022-07-06T05:21:42;102068.16;;;15.21;96.25
15308;BME280;7755;52.208;6.964;2022-07-06T05:25:48;102075.41;;;15.27;96.08
15308;BME280;7755;52.208;6.964;2022-07-06T05:29:50;102077.19;;;15.33;95.85
15308;BME280;7755;52.208;6.964;2022-07-06T05:33:53;102079.81;;;15.28;95.61
15308;BME280;7755;52.208;6.964;2022-07-06T05:37:55;102079.81;;;15.28;95.80
15308;BME280;7755;52.208;6.964;2022-07-06T05:41:58;102083.28;;;15.35;95.81
15308;BME280;7755;52.208;6.964;2022-07-06T05:46:00;102089.22;;;15.44;95.64
15308;BME280;7755;52.208;6.964;2022-07-06T05:50:06;102088.75;;;15.47;95.78
15308;BME280;7755;52.208;6.964;2022-07-06T05:54:14;102091.88;;;15.39;96.43
15308;BME280;7755;52.208;6.964;2022-07-06T05:58:18;102102.72;;;15.45;97.31
15308;BME280;7755;52.208;6.964;2022-07-06T06:02:21;102102.81;;;15.50;97.85
15308;BME280;7755;52.208;6.964;2022-07-06T06:06:23;102103.75;;;15.56;97.89
15308;BME280;7755;52.208;6.964;2022-07-06T06:10:25;102097.56;;;15.61;97.21
15308;BME280;7755;52.208;6.964;2022-07-06T06:14:32;102102.25;;;15.72;96.62
15308;BME280;7755;52.208;6.964;2022-07-06T06:18:34;102101.38;;;15.83;96.25
15308;BME280;7755;52.208;6.964;2022-07-06T06:22:46;102110.91;;;15.92;95.47
15308;BME280;7755;52.208;6.964;2022-07-06T06:26:48;102112.44;;;16.00;95.63
15308;BME280;7755;52.208;6.964;2022-07-06T06:30:52;102106.81;;;16.06;94.83
15308;BME280;7755;52.208;6.964;2022-07-06T06:34:54;102120.44;;;16.30;94.41
15308;BME280;7755;52.208;6.964;2022-07-06T06:38:56;102112.13;;;16.53;92.99
15308;BME280;7755;52.208;6.964;2022-07-06T06:42:58;102116.00;;;16.69;91.80
15308;BME280;7755;52.208;6.964;2022-07-06T06:47:01;102122.09;;;16.71;90.76
15308;BME280;7755;52.208;6.964;2022-07-06T06:51:03;102124.53;;;16.84;89.91
15308;BME280;7755;52.208;6.964;2022-07-06T06:55:06;102124.41;;;17.08;89.09
15308;BME280;7755;52.208;6.964;2022-07-06T06:59:08;102121.97;;;17.28;87.70
15308;BME280;7755;52.208;6.964;2022-07-06T07:03:11;102132.97;;;17.45;86.57
15308;BME280;7755;52.208;6.964;2022-07-06T07:07:13;102134.34;;;17.64;85.47
15308;BME280;7755;52.208;6.964;2022-07-06T07:11:16;102135.94;;;17.77;84.16
15308;BME280;7755;52.208;6.964;2022-07-06T07:15:17;102129.25;;;18.12;84.05
15308;BME280;7755;52.208;6.964;2022-07-06T07:19:21;102128.66;;;18.80;80.06
15308;BME280;7755;52.208;6.964;2022-07-06T07:23:23;102121.53;;;19.17;78.54
15308;BME280;7755;52.208;6.964;2022-07-06T07:27:24;102127.91;;;19.17;75.46
15308;BME280;7755;52.208;6.964;2022-07-06T07:31:26;102127.19;;;19.00;73.86
15308;BME280;7755;52.208;6.964;2022-07-06T07:35:29;102126.91;;;19.01;74.73
15308;BME280;7755;52.208;6.964;2022-07-06T07:39:31;102139.09;;;19.43;73.43
15308;BME280;7755;52.208;6.964;2022-07-06T07:43:33;102138.44;;;19.62;70.15
15308;BME280;7755;52.208;6.964;2022-07-06T07:47:35;102138.53;;;19.41;66.77
15308;BME280;7755;52.208;6.964;2022-07-06T07:51:38;102131.81;;;19.26;63.42
15308;BME280;7755;52.208;6.964;2022-07-06T07:55:42;102118.72;;;19.49;63.94
15308;BME280;7755;52.208;6.964;2022-07-06T07:59:43;102126.00;;;20.07;61.48
15308;BME280;7755;52.208;6.964;2022-07-06T08:03:45;102121.91;;;20.20;56.93
15308;BME280;7755;52.208;6.964;2022-07-06T08:07:48;102118.81;;;20.06;58.42
15308;BME280;7755;52.208;6.964;2022-07-06T08:11:50;102122.59;;;19.85;58.54
15308;BME280;7755;52.208;6.964;2022-07-06T08:15:52;102112.84;;;19.35;57.19
15308;BME280;7755;52.208;6.964;2022-07-06T08:19:54;102116.50;;;19.08;59.49
15308;BME280;7755;52.208;6.964;2022-07-06T08:23:57;102130.16;;;18.93;60.68
15308;BME280;7755;52.208;6.964;2022-07-06T08:28:01;102134.72;;;18.82;62.29
15308;BME280;7755;52.208;6.964;2022-07-06T08:32:03;102127.66;;;18.65;62.90
15308;BME280;7755;52.208;6.964;2022-07-06T08:36:06;102129.41;;;18.71;62.77
15308;BME280;7755;52.208;6.964;2022-07-06T08:40:09;102129.00;;;19.21;62.61
15308;BME280;7755;52.208;6.964;2022-07-06T08:44:12;102124.59;;;20.00;58.77
15308;BME280;7755;52.208;6.964;2022-07-06T08:48:14;102122.75;;;20.26;56.51
15308;BME280;7755;52.208;6.964;2022-07-06T08:52:16;102121.41;;;20.43;57.24
15308;BME280;7755;52.208;6.964;2022-07-06T08:56:20;102120.69;;;20.84;53.23
15308;BME280;7755;52.208;6.964;2022-07-06T09:00:22;102121.00;;;21.03;52.88
15308;BME280;7755;52.208;6.964;2022-07-06T09:04:25;102119.59;;;21.15;52.77
15308;BME280;7755;52.208;6.964;2022-07-06T09:08:29;102125.41;;;21.09;50.67
15308;BME280;7755;52.208;6.964;2022-07-06T09:12:33;102115.44;;;21.23;51.31
15308;BME280;7755;52.208;6.964;2022-07-06T09:16:35;102109.91;;;21.48;51.13
15308;BME280;7755;52.208;6.964;2022-07-06T09:20:37;102112.69;;;21.38;50.85
15308;BME280;7755;52.208;6.964;2022-07-06T09:24:41;102116.28;;;20.98;52.11
15308;BME280;7755;52.208;6.964;2022-07-06T09:28:45;102107.44;;;20.91;51.71
15308;BME280;7755;52.208;6.964;2022-07-06T09:32:50;102106.91;;;21.35;52.47
15308;BME280;7755;52.208;6.964;2022-07-06T09:36:52;102115.56;;;22.03;49.71
15308;BME280;7755;52.208;6.964;2022-07-06T09:40:54;102112.75;;;22.68;47.68
15308;BME280;7755;52.208;6.964;2022-07-06T09:44:57;102103.94;;;23.00;45.88
15308;BME280;7755;52.208;6.964;2022-07-06T09:48:59;102109.97;;;23.36;45.28
15308;BME280;7755;52.208;6.964;2022-07-06T09:53:01;102118.31;;;23.07;46.53
15308;BME280;7755;52.208;6.964;2022-07-06T09:57:04;102120.97;;;22.83;48.26
15308;BME280;7755;52.208;6.964;2022-07-06T10:01:09;102119.50;;;22.56;49.30
15308;BME280;7755;52.208;6.964;2022-07-06T10:05:11;102122.66;;;22.34;49.99
15308;BME280;7755;52.208;6.964;2022-07-06T10:09:13;102124.41;;;22.65;48.95
15308;BME280;7755;52.208;6.964;2022-07-06T10:13:21;102121.22;;;22.92;47.42
15308;BME280;7755;52.208;6.964;2022-07-06T10:17:26;102115.84;;;23.34;46.63
15308;BME280;7755;52.208;6.964;2022-07-06T10:21:28;102117.59;;;23.54;45.21
15308;BME280;7755;52.208;6.964;2022-07-06T10:25:31;102112.84;;;23.31;43.60
15308;BME280;7755;52.208;6.964;2022-07-06T10:29:33;102120.28;;;23.64;42.74
15308;BME280;7755;52.208;6.964;2022-07-06T10:33:37;102105.81;;;23.91;41.92
15308;BME280;7755;52.208;6.964;2022-07-06T10:37:40;102108.88;;;24.14;41.24
15308;BME280;7755;52.208;6.964;2022-07-06T10:41:50;102103.56;;;23.93;42.31
15308;BME280;7755;52.208;6.964;2022-07-06T10:45:53;102103.22;;;23.47;42.01
15308;BME280;7755;52.208;6.964;2022-07-06T10:50:00;102105.66;;;23.25;43.94
15308;BME280;7755;52.208;6.964;2022-07-06T10:54:04;102109.88;;;22.83;45.71
15308;BME280;7755;52.208;6.964;2022-07-06T10:58:06;102101.59;;;22.28;47.54
15308;BME280;7755;52.208;6.964;2022-07-06T11:02:12;102098.16;;;21.97;49.07
15308;BME280;7755;52.208;6.964;2022-07-06T11:06:17;102094.63;;;21.71;48.69
15308;BME280;7755;52.208;6.964;2022-07-06T11:10:22;102104.00;;;21.80;49.92
15308;BME280;7755;52.208;6.964;2022-07-06T11:14:24;102102.84;;;21.97;48.48
15308;BME280;7755;52.208;6.964;2022-07-06T11:18:26;102101.91;;;22.27;46.94
15308;BME280;7755;52.208;6.964;2022-07-06T11:22:29;102082.34;;;22.57;45.77
15308;BME280;7755;52.208;6.964;2022-07-06T11:26:32;102085.53;;;23.09;44.51
15308;BME280;7755;52.208;6.964;2022-07-06T11:30:36;102089.81;;;23.54;43.70
15308;BME280;7755;52.208;6.964;2022-07-06T11:34:41;102078.84;;;23.68;42.31
15308;BME280;7755;52.208;6.964;2022-07-06T11:38:46;102074.50;;;23.57;42.80
15308;BME280;7755;52.208;6.964;2022-07-06T11:42:52;102080.47;;;23.45;43.52
15308;BME280;7755;52.208;6.964;2022-07-06T11:46:54;102073.28;;;23.15;43.79
15308;BME280;7755;52.208;6.964;2022-07-06T11:50:58;102070.69;;;22.95;44.89
15308;BME280;7755;52.208;6.964;2022-07-06T11:55:02;102074.91;;;22.48;46.19
15308;BME280;7755;52.208;6.964;2022-07-06T11:59:04;102079.97;;;22.36;46.69
15308;BME280;7755;52.208;6.964;2022-07-06T12:03:06;102066.97;;;22.31;46.65
15308;BME280;7755;52.208;6.964;2022-07-06T12:07:09;102068.13;;;22.25;46.82
15308;BME280;7755;52.208;6.964;2022-07-06T12:11:19;102065.19;;;22.50;46.69
15308;BME280;7755;52.208;6.964;2022-07-06T12:15:26;102058.69;;;23.04;45.78
15308;BME280;7755;52.208;6.964;2022-07-06T12:19:28;102053.41;;;23.61;43.79
15308;BME280;7755;52.208;6.964;2022-07-06T12:23:38;102047.59;;;23.81;41.26
15308;BME280;7755;52.208;6.964;2022-07-06T12:27:42;102038.56;;;24.13;40.52
15308;BME280;7755;52.208;6.964;2022-07-06T12:31:48;102030.91;;;24.43;40.96
15308;BME280;7755;52.208;6.964;2022-07-06T12:35:50;102021.50;;;24.20;39.68
15308;BME280;7755;52.208;6.964;2022-07-06T12:39:51;102016.16;;;23.86;40.79
15308;BME280;7755;52.208;6.964;2022-07-06T12:44:05;102022.50;;;23.67;41.14
15308;BME280;7755;52.208;6.964;2022-07-06T12:48:07;102026.25;;;23.77;42.08
15308;BME280;7755;52.208;6.964;2022-07-06T12:52:10;102023.94;;;23.65;42.66
15308;BME280;7755;52.208;6.964;2022-07-06T12:56:13;102022.59;;;23.33;42.61
15308;BME280;7755;52.208;6.964;2022-07-06T13:00:17;102017.22;;;23.42;41.76
15308;BME280;7755;52.208;6.964;2022-07-06T13:04:20;102019.88;;;23.28;42.87
15308;BME280;7755;52.208;6.964;2022-07-06T13:08:21;102034.19;;;23.11;42.33
15308;BME280;7755;52.208;6.964;2022-07-06T13:12:24;102033.81;;;22.94;42.62
15308;BME280;7755;52.208;6.964;2022-07-06T13:16:27;102036.16;;;22.77;42.66
15308;BME280;7755;52.208;6.964;2022-07-06T13:20:34;102027.50;;;22.83;42.73
15308;BME280;7755;52.208;6.964;2022-07-06T13:24:37;102023.97;;;22.73;43.42
15308;BME280;7755;52.208;6.964;2022-07-06T13:28:38;102024.56;;;22.70;43.42
15308;BME280;7755;52.208;6.964;2022-07-06T13:32:42;102028.28;;;22.55;43.57
15308;BME280;7755;52.208;6.964;2022-07-06T13:36:44;102020.44;;;22.62;43.29
15308;BME280;7755;52.208;6.964;2022-07-06T13:40:45;102012.28;;;22.76;44.30
15308;BME280;7755;52.208;6.964;2022-07-06T13:44:47;102001.47;;;22.79;42.66
15308;BME280;7755;52.208;6.964;2022-07-06T13:48:50;101997.00;;;22.83;42.52
15308;BME280;7755;52.208;6.964;2022-07-06T13:52:52;102011.78;;;23.03;42.75
15308;BME280;7755;52.208;6.964;2022-07-06T13:56:54;102010.41;;;23.05;41.77
15308;BME280;7755;52.208;6.964;2022-07-06T14:00:57;102001.97;;;23.15;41.84
15308;BME280;7755;52.208;6.964;2022-07-06T14:05:00;101996.72;;;23.38;42.17
15308;BME280;7755;52.208;6.964;2022-07-06T14:09:02;101980.91;;;23.38;42.00
15308;BME280;7755;52.208;6.964;2022-07-06T14:13:04;101979.38;;;23.51;40.70
15308;BME280;7755;52.208;6.964;2022-07-06T14:17:06;101973.56;;;23.48;40.29
15308;BME280;7755;52.208;6.964;2022-07-06T14:21:09;101985.34;;;23.39;41.69
15308;BME280;7755;52.208;6.964;2022-07-06T14:25:11;101975.47;;;23.28;41.42
15308;BME280;7755;52.208;6.964;2022-07-06T14:29:13;101967.53;;;23.16;41.17
15308;BME280;7755;52.208;6.964;2022-07-06T14:33:15;101964.78;;;23.40;40.90
15308;BME280;7755;52.208;6.964;2022-07-06T14:37:18;101960.75;;;23.52;40.47
15308;BME280;7755;52.208;6.964;2022-07-06T14:41:20;101951.00;;;23.78;39.88
15308;BME280;7755;52.208;6.964;2022-07-06T14:45:23;101948.13;;;23.64;40.01
15308;BME280;7755;52.208;6.964;2022-07-06T14:49:24;101942.41;;;23.75;39.12
15308;BME280;7755;52.208;6.964;2022-07-06T14:53:28;101933.94;;;23.85;39.68
15308;BME280;7755;52.208;6.964;2022-07-06T14:57:29;101940.16;;;23.95;39.91
15308;BME280;7755;52.208;6.964;2022-07-06T15:01:31;101931.44;;;24.02;40.13
15308;BME280;7755;52.208;6.964;2022-07-06T15:05:33;101928.28;;;24.09;40.12
15308;BME280;7755;52.208;6.964;2022-07-06T15:09:36;101929.03;;;24.14;39.83
15308;BME280;7755;52.208;6.964;2022-07-06T15:13:38;101930.13;;;24.00;40.09
15308;BME280;7755;52.208;6.964;2022-07-06T15:17:40;101924.25;;;23.82;40.35
15308;BME280;7755;52.208;6.964;2022-07-06T15:21:42;101921.47;;;23.82;40.38
15308;BME280;7755;52.208;6.964;2022-07-06T15:25:45;101915.97;;;23.77;39.71
15308;BME280;7755;52.208;6.964;2022-07-06T15:29:47;101917.72;;;23.73;40.66
15308;BME280;7755;52.208;6.964;2022-07-06T15:33:49;101903.22;;;23.57;40.99
15308;BME280;7755;52.208;6.964;2022-07-06T15:37:51;101906.22;;;23.61;41.34
15308;BME280;7755;52.208;6.964;2022-07-06T15:41:54;101914.50;;;23.66;42.05
15308;BME280;7755;52.208;6.964;2022-07-06T15:45:58;101896.06;;;23.51;42.08
15308;BME280;7755;52.208;6.964;2022-07-06T15:50:01;101899.75;;;23.47;42.34
15308;BME280;7755;52.208;6.964;2022-07-06T15:54:02;101892.81;;;23.25;41.84
15308;BME280;7755;52.208;6.964;2022-07-06T15:58:06;101884.53;;;23.20;42.10
15308;BME280;7755;52.208;6.964;2022-07-06T16:02:08;101886.69;;;23.04;42.19
15308;BME280;7755;52.208;6.964;2022-07-06T16:06:10;101890.34;;;23.00;43.10
15308;BME280;7755;52.208;6.964;2022-07-06T16:10:12;101883.25;;;22.88;42.73
15308;BME280;7755;52.208;6.964;2022-07-06T16:14:15;101885.78;;;22.85;42.88
15308;BME280;7755;52.208;6.964;2022-07-06T16:18:17;101878.44;;;22.70;42.77
15308;BME280;7755;52.208;6.964;2022-07-06T16:22:18;101865.38;;;22.47;42.94
15308;BME280;7755;52.208;6.964;2022-07-06T16:26:20;101868.03;;;22.28;44.05
15308;BME280;7755;52.208;6.964;2022-07-06T16:30:25;101857.78;;;22.28;44.43
15308;BME280;7755;52.208;6.964;2022-07-06T16:34:27;101866.19;;;22.18;44.32
15308;BME280;7755;52.208;6.964;2022-07-06T16:38:28;101856.88;;;22.09;44.63
15308;BME280;7755;52.208;6.964;2022-07-06T16:42:30;101857.69;;;22.04;45.41
15308;BME280;7755;52.208;6.964;2022-07-06T16:46:34;101854.91;;;22.04;45.77
15308;BME280;7755;52.208;6.964;2022-07-06T16:50:35;101853.34;;;21.93;46.05
15308;BME280;7755;52.208;6.964;2022-07-06T16:54:38;101846.75;;;21.89;46.22
15308;BME280;7755;52.208;6.964;2022-07-06T16:58:40;101841.19;;;21.89;46.64
15308;BME280;7755;52.208;6.964;2022-07-06T17:06:44;101832.41;;;21.82;46.88
15308;BME280;7755;52.208;6.964;2022-07-06T17:10:46;101823.53;;;21.80;46.81
15308;BME280;7755;52.208;6.964;2022-07-06T17:14:48;101823.03;;;21.73;46.94
15308;BME280;7755;52.208;6.964;2022-07-06T17:18:51;101821.38;;;21.72;47.81
15308;BME280;7755;52.208;6.964;2022-07-06T17:22:53;101821.09;;;21.73;47.85
15308;BME280;7755;52.208;6.964;2022-07-06T17:26:57;101830.53;;;21.67;48.46
15308;BME280;7755;52.208;6.964;2022-07-06T17:30:59;101831.13;;;21.64;50.52
15308;BME280;7755;52.208;6.964;2022-07-06T17:35:02;101827.38;;;21.45;54.49
15308;BME280;7755;52.208;6.964;2022-07-06T17:39:04;101825.03;;;21.18;57.42
15308;BME280;7755;52.208;6.964;2022-07-06T17:43:06;101829.84;;;20.92;59.05
15308;BME280;7755;52.208;6.964;2022-07-06T17:47:08;101836.78;;;20.79;61.85
15308;BME280;7755;52.208;6.964;2022-07-06T17:51:11;101828.31;;;20.55;61.38
15308;BME280;7755;52.208;6.964;2022-07-06T17:55:13;101827.47;;;20.39;61.90
15308;BME280;7755;52.208;6.964;2022-07-06T17:59:15;101826.94;;;20.27;63.50
15308;BME280;7755;52.208;6.964;2022-07-06T18:03:17;101825.56;;;20.25;65.61
15308;BME280;7755;52.208;6.964;2022-07-06T18:07:20;101818.13;;;20.10;66.99
15308;BME280;7755;52.208;6.964;2022-07-06T18:11:22;101825.03;;;19.92;67.17
15308;BME280;7755;52.208;6.964;2022-07-06T18:15:24;101819.50;;;19.82;67.80
15308;BME280;7755;52.208;6.964;2022-07-06T18:19:26;101818.97;;;19.85;68.07
15308;BME280;7755;52.208;6.964;2022-07-06T18:23:29;101810.38;;;19.76;68.64
15308;BME280;7755;52.208;6.964;2022-07-06T18:27:31;101804.88;;;19.81;68.40
15308;BME280;7755;52.208;6.964;2022-07-06T18:31:32;101808.47;;;19.82;69.31
15308;BME280;7755;52.208;6.964;2022-07-06T18:35:34;101808.75;;;19.85;68.26
15308;BME280;7755;52.208;6.964;2022-07-06T18:39:38;101793.56;;;19.83;67.68
15308;BME280;7755;52.208;6.964;2022-07-06T18:43:40;101804.06;;;19.86;68.10
15308;BME280;7755;52.208;6.964;2022-07-06T18:47:42;101791.91;;;19.87;68.03
15308;BME280;7755;52.208;6.964;2022-07-06T18:51:44;101790.50;;;19.84;67.99
15308;BME280;7755;52.208;6.964;2022-07-06T18:55:47;101778.94;;;19.93;68.36
15308;BME280;7755;52.208;6.964;2022-07-06T18:59:49;101775.91;;;19.94;68.42
15308;BME280;7755;52.208;6.964;2022-07-06T19:03:51;101780.59;;;19.94;68.12
15308;BME280;7755;52.208;6.964;2022-07-06T19:07:53;101775.06;;;19.88;67.76
15308;BME280;7755;52.208;6.964;2022-07-06T19:11:56;101778.38;;;19.90;68.23
15308;BME280;7755;52.208;6.964;2022-07-06T19:15:58;101762.09;;;19.89;67.94
15308;BME280;7755;52.208;6.964;2022-07-06T19:20:00;101765.94;;;19.83;67.84
15308;BME280;7755;52.208;6.964;2022-07-06T19:24:02;101765.97;;;19.73;67.99
15308;BME280;7755;52.208;6.964;2022-07-06T19:28:05;101767.06;;;19.72;67.55
15308;BME280;7755;52.208;6.964;2022-07-06T19:32:07;101761.28;;;19.68;67.92
15308;BME280;7755;52.208;6.964;2022-07-06T19:36:09;101765.97;;;19.68;68.08
15308;BME280;7755;52.208;6.964;2022-07-06T19:40:12;101765.69;;;19.69;68.42
15308;BME280;7755;52.208;6.964;2022-07-06T19:44:15;101759.63;;;19.67;68.59
15308;BME280;7755;52.208;6.964;2022-07-06T19:48:17;101753.25;;;19.61;68.82
15308;BME280;7755;52.208;6.964;2022-07-06T19:52:19;101755.47;;;19.59;68.97
15308;BME280;7755;52.208;6.964;2022-07-06T19:56:22;101752.44;;;19.61;69.04
15308;BME280;7755;52.208;6.964;2022-07-06T20:00:26;101743.63;;;19.59;69.32
15308;BME280;7755;52.208;6.964;2022-07-06T20:04:28;101752.13;;;19.52;69.68
15308;BME280;7755;52.208;6.964;2022-07-06T20:08:30;101752.97;;;19.53;69.88
15308;BME280;7755;52.208;6.964;2022-07-06T20:12:32;101750.22;;;19.53;70.10
15308;BME280;7755;52.208;6.964;2022-07-06T20:16:35;101746.63;;;19.57;70.31
15308;BME280;7755;52.208;6.964;2022-07-06T20:20:37;101748.56;;;19.52;69.95
15308;BME280;7755;52.208;6.964;2022-07-06T20:24:38;101732.25;;;19.50;70.62
15308;BME280;7755;52.208;6.964;2022-07-06T20:28:40;101736.97;;;19.45;71.28
15308;BME280;7755;52.208;6.964;2022-07-06T20:32:44;101734.47;;;19.38;71.67
15308;BME280;7755;52.208;6.964;2022-07-06T20:36:45;101731.16;;;19.31;72.57
15308;BME280;7755;52.208;6.964;2022-07-06T20:40:47;101729.22;;;19.26;72.86
15308;BME280;7755;52.208;6.964;2022-07-06T20:44:49;101723.97;;;19.25;73.42
15308;BME280;7755;52.208;6.964;2022-07-06T20:48:52;101717.06;;;19.22;73.91
15308;BME280;7755;52.208;6.964;2022-07-06T20:52:54;101720.38;;;19.19;74.63
15308;BME280;7755;52.208;6.964;2022-07-06T20:56:56;101718.44;;;19.15;75.18
15308;BME280;7755;52.208;6.964;2022-07-06T21:00:58;101707.66;;;19.08;75.58
15308;BME280;7755;52.208;6.964;2022-07-06T21:05:01;101709.34;;;19.04;76.05
15308;BME280;7755;52.208;6.964;2022-07-06T21:09:04;101715.09;;;19.02;76.15
15308;BME280;7755;52.208;6.964;2022-07-06T21:13:06;101706.28;;;19.00;76.03
15308;BME280;7755;52.208;6.964;2022-07-06T21:17:08;101705.75;;;18.98;76.60
15308;BME280;7755;52.208;6.964;2022-07-06T21:21:12;101701.31;;;18.97;77.42
15308;BME280;7755;52.208;6.964;2022-07-06T21:25:13;101698.28;;;18.94;78.58
15308;BME280;7755;52.208;6.964;2022-07-06T21:29:15;101712.63;;;18.91;78.89